Time;durP1;ratioP1;P1;durP2;ratioP2;P2;SDS_P1;SDS_P2;PMS_P1;PMS_P2;Temp;Humidity;BMP_temperature;BMP_pressure;BME280_temperature;BME280_humidity;BME280_pressure;Samples;Min_cycle;Max_cycle;Signal;HPM_P1;HPM_P2
2024/01/23 00:01:00;;;;;;;5.77;3.20;;;5.80;99.90;;;;;;5213149;28;20190;-46
2024/01/23 00:03:31;;;;;;;4.70;2.53;;;5.70;99.90;;;;;;5206741;28;20175;-48
2024/01/23 00:06:01;;;;;;;9.77;3.10;;;5.70;99.90;;;;;;5213350;28;20523;-46
2024/01/23 00:08:32;;;;;;;8.53;3.20;;;5.70;99.90;;;;;;5214473;28;20477;-48
2024/01/23 00:11:03;;;;;;;20.63;3.37;;;5.70;99.90;;;;;;5220645;28;20190;-48
2024/01/23 00:13:34;;;;;;;19.00;3.53;;;5.80;99.90;;;;;;5211284;28;20195;-47
2024/01/23 00:16:05;;;;;;;8.33;2.13;;;5.80;99.90;;;;;;5212998;28;20511;-47
2024/01/23 00:18:36;;;;;;;8.27;2.70;;;5.80;99.90;;;;;;5195358;28;20198;-48
2024/01/23 00:21:06;;;;;;;15.10;3.13;;;5.90;99.90;;;;;;5212202;28;20818;-47
2024/01/23 00:23:37;;;;;;;7.43;2.27;;;6.00;99.90;;;;;;5215670;28;20282;-48
2024/01/23 00:26:08;;;;;;;8.67;3.20;;;6.10;99.90;;;;;;5200790;28;20591;-46
2024/01/23 00:28:39;;;;;;;8.53;2.33;;;6.30;99.90;;;;;;5207894;28;20180;-47
2024/01/23 00:31:09;;;;;;;6.40;2.40;;;6.20;99.90;;;;;;5200963;28;20774;-47
2024/01/23 00:33:40;;;;;;;6.83;1.93;;;6.30;99.90;;;;;;5217026;28;20186;-47
2024/01/23 00:36:11;;;;;;;5.80;2.10;;;6.40;99.90;;;;;;5199631;28;20247;-48
2024/01/23 00:38:41;;;;;;;14.90;3.47;;;6.50;99.90;;;;;;5216792;28;20179;-47
2024/01/23 00:41:12;;;;;;;15.23;2.10;;;6.60;99.90;;;;;;5215892;28;20223;-49
2024/01/23 00:43:43;;;;;;;12.73;2.23;;;6.60;99.90;;;;;;5218222;28;20515;-50
2024/01/23 00:46:13;;;;;;;7.93;2.50;;;6.80;99.90;;;;;;5217987;28;20199;-47
2024/01/23 00:48:44;;;;;;;4.23;1.90;;;6.80;99.90;;;;;;5207861;28;20184;-46
2024/01/23 00:51:14;;;;;;;5.60;1.90;;;6.80;99.90;;;;;;5212746;28;20190;-47
2024/01/23 00:53:45;;;;;;;6.40;2.13;;;6.80;99.90;;;;;;5183550;28;20198;-46
2024/01/23 00:56:16;;;;;;;5.60;1.93;;;6.80;99.90;;;;;;5219030;28;20183;-47
2024/01/23 00:58:46;;;;;;;7.60;1.80;;;6.80;99.90;;;;;;5218175;28;20539;-47
2024/01/23 01:01:17;;;;;;;7.53;2.00;;;6.70;99.90;;;;;;5222704;28;20221;-47
2024/01/23 01:03:47;;;;;;;9.23;2.20;;;6.60;99.90;;;;;;5206218;28;20184;-48
2024/01/23 01:06:18;;;;;;;4.97;1.90;;;6.60;99.90;;;;;;5209836;28;20211;-47
2024/01/23 01:08:49;;;;;;;9.10;1.90;;;6.50;99.90;;;;;;5213135;28;20192;-48
2024/01/23 01:11:20;;;;;;;4.00;1.90;;;6.40;99.90;;;;;;5213587;28;20214;-46
2024/01/23 01:13:50;;;;;;;11.17;2.23;;;6.40;99.90;;;;;;5215216;28;20188;-47
2024/01/23 01:16:21;;;;;;;11.13;1.97;;;6.40;99.90;;;;;;5218321;28;20197;-48
2024/01/23 01:18:52;;;;;;;3.37;1.60;;;6.30;99.90;;;;;;5223556;28;20646;-47
2024/01/23 01:21:23;;;;;;;5.50;1.70;;;6.20;99.90;;;;;;5217765;28;20191;-47
2024/01/23 01:23:54;;;;;;;3.87;1.70;;;6.00;99.90;;;;;;5188364;28;20448;-47
2024/01/23 01:26:25;;;;;;;9.20;1.77;;;5.90;99.90;;;;;;5217551;28;20210;-48
2024/01/23 01:28:55;;;;;;;20.23;2.33;;;5.70;99.90;;;;;;5221497;28;20258;-48
2024/01/23 01:31:26;;;;;;;6.47;2.30;;;5.70;99.90;;;;;;5213347;28;20183;-48
2024/01/23 01:33:57;;;;;;;5.40;2.27;;;5.40;99.90;;;;;;5224068;28;20837;-46
2024/01/23 01:36:27;;;;;;;3.67;1.57;;;5.30;99.90;;;;;;5197140;28;20195;-47
2024/01/23 01:39:01;;;;;;;1.60;1.33;;;5.20;99.90;;;;;;5207945;28;20214;-47
2024/01/23 01:41:31;;;;;;;8.10;1.73;;;5.30;99.90;;;;;;5212884;28;20195;-48
2024/01/23 01:44:02;;;;;;;4.00;1.33;;;5.20;99.90;;;;;;5218736;28;20468;-46
2024/01/23 01:46:33;;;;;;;7.03;2.43;;;5.20;99.90;;;;;;5214896;28;20253;-46
2024/01/23 01:49:03;;;;;;;2.00;1.43;;;5.10;99.90;;;;;;5219200;28;20189;-47
2024/01/23 01:51:34;;;;;;;8.43;1.87;;;5.10;99.90;;;;;;5216347;28;20202;-47
2024/01/23 01:54:05;;;;;;;6.10;1.73;;;5.10;99.90;;;;;;5215148;28;20264;-46
2024/01/23 01:56:37;;;;;;;3.13;1.30;;;5.10;99.90;;;;;;5196522;28;20456;-47
2024/01/23 01:59:09;;;;;;;8.13;2.00;;;5.00;99.90;;;;;;5213532;28;21152;-46
2024/01/23 02:01:40;;;;;;;5.93;1.60;;;4.90;99.90;;;;;;5208909;28;20435;-47
2024/01/23 02:04:10;;;;;;;8.33;2.07;;;4.90;99.90;;;;;;5213696;28;20454;-45
2024/01/23 02:06:41;;;;;;;6.63;1.50;;;5.00;99.90;;;;;;5191889;28;20336;-47
2024/01/23 02:09:12;;;;;;;4.00;1.70;;;5.10;99.90;;;;;;5215060;28;20197;-46
2024/01/23 02:11:59;;;;;;;12.20;2.00;;;5.10;99.90;;;;;;5191036;28;20437;-46
2024/01/23 02:14:30;;;;;;;9.10;1.53;;;5.10;99.90;;;;;;5211152;28;20209;-47
2024/01/23 02:17:01;;;;;;;12.27;2.07;;;5.20;99.90;;;;;;5220497;28;20441;-48
2024/01/23 02:19:32;;;;;;;7.03;1.53;;;5.20;99.90;;;;;;5206334;28;20643;-48
2024/01/23 02:22:02;;;;;;;10.20;1.70;;;5.20;99.90;;;;;;5196660;28;20191;-48
2024/01/23 02:24:33;;;;;;;4.00;1.23;;;5.10;99.90;;;;;;5215636;28;20581;-46
2024/01/23 02:27:04;;;;;;;9.80;2.03;;;5.10;99.90;;;;;;5216568;28;20213;-47
2024/01/23 02:29:37;;;;;;;4.50;1.57;;;5.00;99.90;;;;;;5209786;28;20186;-54
2024/01/23 02:32:08;;;;;;;3.87;1.90;;;4.90;99.90;;;;;;5209010;28;20191;-47
2024/01/23 02:34:38;;;;;;;1.97;1.87;;;4.90;99.90;;;;;;5203098;28;20491;-46
2024/01/23 02:37:09;;;;;;;14.10;1.90;;;4.80;99.90;;;;;;5195108;28;20668;-46
2024/01/23 02:39:39;;;;;;;2.30;1.80;;;4.80;99.90;;;;;;5196121;28;20187;-47
2024/01/23 02:42:10;;;;;;;3.60;1.60;;;4.80;99.90;;;;;;5216432;28;20190;-50
2024/01/23 02:44:45;;;;;;;8.63;1.47;;;4.80;99.90;;;;;;5213181;28;20210;-46
2024/01/23 02:47:15;;;;;;;6.07;1.90;;;4.80;99.90;;;;;;5203731;28;20195;-48
2024/01/23 02:49:46;;;;;;;3.43;1.63;;;4.90;99.90;;;;;;5209736;28;20429;-46
2024/01/23 02:52:17;;;;;;;7.27;1.60;;;5.00;99.90;;;;;;5224077;28;20178;-47
2024/01/23 02:54:47;;;;;;;6.03;2.10;;;5.10;99.90;;;;;;5215008;28;20258;-50
2024/01/23 02:57:18;;;;;;;9.87;2.40;;;5.10;99.90;;;;;;5224716;28;20222;-47
2024/01/23 02:59:49;;;;;;;4.17;1.87;;;5.10;99.90;;;;;;5200180;28;20191;-47
2024/01/23 03:02:23;;;;;;;3.73;1.80;;;5.00;99.90;;;;;;5220548;28;20190;-48
2024/01/23 03:04:54;;;;;;;3.70;1.67;;;5.10;99.90;;;;;;5199941;28;20217;-47
2024/01/23 03:07:25;;;;;;;5.00;2.43;;;5.20;99.90;;;;;;5219711;28;20471;-48
2024/01/23 03:09:55;;;;;;;5.87;1.60;;;5.20;99.90;;;;;;5210648;28;20183;-49
2024/01/23 03:12:26;;;;;;;3.00;1.83;;;5.30;99.90;;;;;;5211645;28;20249;-47
2024/01/23 03:14:57;;;;;;;7.90;2.10;;;5.40;99.90;;;;;;5199861;28;20206;-47
2024/01/23 03:17:27;;;;;;;9.83;2.10;;;5.40;99.90;;;;;;5194847;28;20222;-47
2024/01/23 03:19:59;;;;;;;2.83;1.53;;;5.50;99.90;;;;;;5209794;28;20195;-46
2024/01/23 03:22:30;;;;;;;7.83;2.10;;;5.60;99.90;;;;;;5216199;28;20218;-46
2024/01/23 03:25:00;;;;;;;9.47;1.43;;;5.60;99.90;;;;;;5219099;28;20492;-47
2024/01/23 03:27:31;;;;;;;7.57;1.67;;;5.60;99.90;;;;;;5187064;28;20225;-48
2024/01/23 03:30:02;;;;;;;3.13;1.50;;;5.60;99.90;;;;;;5200839;28;20435;-49
2024/01/23 03:32:33;;;;;;;4.17;1.90;;;5.60;99.90;;;;;;5201211;28;20251;-47
2024/01/23 03:35:04;;;;;;;7.40;1.73;;;5.60;99.90;;;;;;5216068;28;20210;-47
2024/01/23 03:37:35;;;;;;;7.90;1.63;;;5.60;99.90;;;;;;5213824;28;20782;-46
2024/01/23 03:40:06;;;;;;;10.53;1.33;;;5.50;99.90;;;;;;5208592;28;20475;-46
2024/01/23 03:42:36;;;;;;;1.73;1.50;;;5.40;99.90;;;;;;5201499;28;21203;-46
2024/01/23 03:45:08;;;;;;;3.23;1.50;;;5.40;99.90;;;;;;5195540;28;20493;-47
2024/01/23 03:47:39;;;;;;;5.53;1.60;;;5.30;99.90;;;;;;5206919;28;20236;-48
2024/01/23 03:50:09;;;;;;;7.83;1.33;;;5.40;99.90;;;;;;5213419;28;20485;-49
2024/01/23 03:52:40;;;;;;;6.17;1.70;;;5.30;99.90;;;;;;5218796;28;20269;-46
2024/01/23 03:55:11;;;;;;;6.63;1.60;;;5.20;99.90;;;;;;5176933;28;20628;-48
2024/01/23 03:57:44;;;;;;;6.90;1.40;;;5.10;99.90;;;;;;5212670;28;20591;-46
2024/01/23 04:00:15;;;;;;;3.23;1.73;;;5.10;99.90;;;;;;5212238;28;20441;-47
2024/01/23 04:02:46;;;;;;;2.67;1.80;;;5.00;99.90;;;;;;5201282;28;20438;-46
2024/01/23 04:05:17;;;;;;;7.93;1.87;;;5.00;99.90;;;;;;5202750;28;20203;-47
2024/01/23 04:07:48;;;;;;;4.33;2.20;;;5.00;99.90;;;;;;5214389;28;20568;-49
2024/01/23 04:10:19;;;;;;;2.67;1.67;;;4.90;99.90;;;;;;5216053;28;20575;-47
2024/01/23 04:12:49;;;;;;;3.17;1.30;;;4.90;99.90;;;;;;5215321;28;20431;-47
2024/01/23 04:15:20;;;;;;;4.97;1.30;;;4.90;99.90;;;;;;5212838;28;20673;-46
2024/01/23 04:17:50;;;;;;;1.80;1.37;;;4.90;99.90;;;;;;5216861;28;20180;-47
2024/01/23 04:20:21;;;;;;;3.53;1.27;;;4.90;99.90;;;;;;5214767;28;20265;-47
2024/01/23 04:22:52;;;;;;;6.70;1.70;;;4.90;99.90;;;;;;5209534;28;20179;-47
2024/01/23 04:25:22;;;;;;;5.00;2.00;;;4.90;99.90;;;;;;5211333;28;20667;-45
2024/01/23 04:27:53;;;;;;;9.90;1.70;;;4.90;99.90;;;;;;5214172;28;20186;-46
2024/01/23 04:30:25;;;;;;;4.43;1.40;;;4.80;99.90;;;;;;5213129;28;20605;-46
2024/01/23 04:32:56;;;;;;;5.77;1.67;;;4.80;99.90;;;;;;5216235;28;20182;-48
2024/01/23 04:35:27;;;;;;;5.13;1.80;;;4.90;99.90;;;;;;5197022;28;20461;-47
2024/01/23 04:37:57;;;;;;;5.37;1.60;;;5.10;99.90;;;;;;5210665;28;20183;-47
2024/01/23 04:40:28;;;;;;;5.53;1.20;;;5.10;99.90;;;;;;5213033;28;20492;-47
2024/01/23 04:42:58;;;;;;;14.70;1.77;;;5.30;99.90;;;;;;5199640;28;20175;-47
2024/01/23 04:45:29;;;;;;;4.07;1.50;;;5.30;99.90;;;;;;5197259;28;20211;-46
2024/01/23 04:48:00;;;;;;;4.77;1.93;;;5.40;99.90;;;;;;5219305;28;20180;-47
2024/01/23 04:50:30;;;;;;;5.57;2.37;;;5.40;99.90;;;;;;5192723;28;20191;-46
2024/01/23 04:53:01;;;;;;;3.97;1.50;;;5.40;99.90;;;;;;5209894;28;20180;-48
2024/01/23 04:55:31;;;;;;;3.27;1.97;;;5.30;99.90;;;;;;5220564;28;20293;-47
2024/01/23 04:58:02;;;;;;;10.87;2.17;;;5.30;99.90;;;;;;5190296;28;20207;-48
2024/01/23 05:00:33;;;;;;;9.40;1.67;;;5.20;99.90;;;;;;5210657;28;20198;-48
2024/01/23 05:03:04;;;;;;;4.57;1.30;;;5.30;99.90;;;;;;5216167;28;20996;-48
2024/01/23 05:05:34;;;;;;;12.03;2.03;;;5.30;99.90;;;;;;5212165;28;20250;-49
2024/01/23 05:08:05;;;;;;;2.30;1.43;;;5.40;99.90;;;;;;5215737;28;20223;-48
2024/01/23 05:10:36;;;;;;;5.60;1.53;;;5.50;99.90;;;;;;5217261;28;20195;-47
2024/01/23 05:13:06;;;;;;;4.83;2.00;;;5.50;99.90;;;;;;5217089;28;20187;-46
2024/01/23 05:15:37;;;;;;;6.50;2.07;;;5.60;99.90;;;;;;5215045;28;21200;-46
2024/01/23 05:18:08;;;;;;;3.37;2.00;;;5.60;99.90;;;;;;5213124;28;20647;-47
2024/01/23 05:20:38;;;;;;;3.73;1.70;;;5.40;99.90;;;;;;5213986;28;20187;-47
2024/01/23 05:23:09;;;;;;;2.70;1.60;;;5.40;99.90;;;;;;5214933;28;20186;-48
2024/01/23 05:25:41;;;;;;;5.00;1.50;;;5.30;99.90;;;;;;5218432;28;20241;-46
2024/01/23 05:28:12;;;;;;;5.40;1.87;;;5.40;99.90;;;;;;5214774;28;20179;-47
2024/01/23 05:30:43;;;;;;;6.20;1.57;;;5.40;99.90;;;;;;5208630;28;20723;-46
2024/01/23 05:33:13;;;;;;;2.57;1.27;;;5.40;99.90;;;;;;5211963;28;20811;-47
2024/01/23 05:35:44;;;;;;;3.03;1.33;;;5.40;99.90;;;;;;5214134;28;20196;-46
2024/01/23 05:38:15;;;;;;;8.60;1.70;;;5.30;99.90;;;;;;5220333;28;20253;-47
2024/01/23 05:40:45;;;;;;;3.00;2.27;;;5.30;99.90;;;;;;5220273;28;20193;-51
2024/01/23 05:43:16;;;;;;;2.93;1.53;;;5.10;99.90;;;;;;5217704;28;20186;-50
2024/01/23 05:45:47;;;;;;;5.40;1.43;;;5.00;99.90;;;;;;5202670;28;20295;-48
2024/01/23 05:48:17;;;;;;;3.57;1.27;;;4.90;99.90;;;;;;5202520;28;20256;-48
2024/01/23 05:50:48;;;;;;;3.47;1.40;;;4.80;99.90;;;;;;5192957;28;20185;-49
2024/01/23 05:53:18;;;;;;;6.10;1.17;;;4.80;99.90;;;;;;5212402;28;20220;-48
2024/01/23 05:55:49;;;;;;;7.83;1.50;;;4.70;99.90;;;;;;5219430;28;20225;-47
2024/01/23 05:58:20;;;;;;;9.57;1.40;;;4.70;99.90;;;;;;5225903;28;20182;-49
2024/01/23 06:00:50;;;;;;;6.50;1.33;;;4.70;99.90;;;;;;5216131;28;20260;-47
2024/01/23 06:03:21;;;;;;;5.70;1.50;;;4.60;99.90;;;;;;5219969;28;20188;-47
2024/01/23 06:05:52;;;;;;;3.90;1.60;;;4.60;99.90;;;;;;5212842;28;20210;-47
2024/01/23 06:08:22;;;;;;;4.70;2.03;;;4.50;99.90;;;;;;5222734;28;20545;-48
2024/01/23 06:10:53;;;;;;;5.77;1.87;;;4.50;99.90;;;;;;5209103;28;20263;-48
2024/01/23 06:13:23;;;;;;;3.47;1.47;;;4.50;99.90;;;;;;5209952;28;20195;-46
2024/01/23 06:15:54;;;;;;;6.73;1.70;;;4.60;99.90;;;;;;5203147;28;20234;-46
2024/01/23 06:18:25;;;;;;;9.60;1.67;;;4.70;99.90;;;;;;5214887;28;20186;-47
2024/01/23 06:20:57;;;;;;;14.73;1.60;;;4.80;99.90;;;;;;5213436;28;20183;-47
2024/01/23 06:23:28;;;;;;;5.70;2.00;;;4.90;99.90;;;;;;5187698;28;20184;-45
2024/01/23 06:25:58;;;;;;;12.00;2.20;;;4.90;99.90;;;;;;5220385;28;21060;-46
2024/01/23 06:28:29;;;;;;;7.67;2.00;;;4.90;99.90;;;;;;5220519;28;20181;-46
2024/01/23 06:31:00;;;;;;;3.33;1.37;;;5.00;99.90;;;;;;5203693;28;20199;-46
2024/01/23 06:33:31;;;;;;;5.77;1.93;;;5.00;99.90;;;;;;5212408;28;20291;-49
2024/01/23 06:36:02;;;;;;;13.87;2.50;;;5.10;99.90;;;;;;5192608;28;20222;-46
2024/01/23 06:38:34;;;;;;;4.53;1.63;;;5.20;99.90;;;;;;5216949;28;20440;-46
2024/01/23 06:41:04;;;;;;;3.80;1.33;;;5.20;99.90;;;;;;5202465;28;20451;-47
2024/01/23 06:43:35;;;;;;;12.40;2.23;;;5.30;99.90;;;;;;5215535;28;20441;-47
2024/01/23 06:46:06;;;;;;;5.60;1.83;;;5.30;99.90;;;;;;5191340;28;20631;-47
2024/01/23 06:48:37;;;;;;;7.53;1.93;;;5.20;99.90;;;;;;5210959;28;20183;-46
2024/01/23 06:51:07;;;;;;;5.80;2.00;;;5.30;99.90;;;;;;5211323;28;20280;-47
2024/01/23 06:53:38;;;;;;;8.30;2.33;;;5.40;99.90;;;;;;5215155;28;20433;-47
2024/01/23 06:56:08;;;;;;;17.77;2.70;;;5.40;99.90;;;;;;5215657;28;20183;-46
2024/01/23 06:58:39;;;;;;;2.57;1.53;;;5.50;99.90;;;;;;5217484;28;20207;-46
2024/01/23 07:01:10;;;;;;;10.80;2.70;;;5.40;99.90;;;;;;5194317;28;20232;-50
2024/01/23 07:03:40;;;;;;;7.30;2.50;;;5.50;99.90;;;;;;5210735;28;20187;-48
2024/01/23 07:06:11;;;;;;;13.60;2.80;;;5.50;99.90;;;;;;5205569;28;20221;-51
2024/01/23 07:08:43;;;;;;;14.63;1.83;;;5.50;99.90;;;;;;5200461;28;20180;-50
2024/01/23 07:11:13;;;;;;;9.13;2.77;;;5.60;99.90;;;;;;5214915;28;20446;-49
2024/01/23 07:13:44;;;;;;;9.27;2.00;;;5.50;99.90;;;;;;5215447;28;20516;-50
2024/01/23 07:16:15;;;;;;;18.50;3.50;;;5.60;99.90;;;;;;5222625;28;20186;-50
2024/01/23 07:18:45;;;;;;;10.27;2.50;;;5.60;99.90;;;;;;5208666;28;20519;-51
2024/01/23 07:21:16;;;;;;;9.90;2.43;;;5.70;99.90;;;;;;5209244;28;20179;-51
2024/01/23 07:23:47;;;;;;;7.50;2.63;;;5.70;99.90;;;;;;5204151;28;20195;-50
2024/01/23 07:26:17;;;;;;;6.70;2.30;;;5.80;99.90;;;;;;5208256;28;20294;-48
2024/01/23 07:28:48;;;;;;;5.67;2.23;;;5.80;99.90;;;;;;5211086;28;20186;-47
2024/01/23 07:31:19;;;;;;;6.97;2.23;;;5.80;99.90;;;;;;5180152;28;20180;-51
2024/01/23 07:33:50;;;;;;;8.87;2.60;;;5.80;99.90;;;;;;5188158;28;20198;-51
2024/01/23 07:36:20;;;;;;;10.70;2.87;;;5.90;99.90;;;;;;5216620;28;20179;-51
2024/01/23 07:38:51;;;;;;;11.93;3.13;;;5.90;99.90;;;;;;5211497;28;20445;-50
2024/01/23 07:41:22;;;;;;;11.83;2.80;;;6.00;99.90;;;;;;5214055;28;20279;-53
2024/01/23 07:43:53;;;;;;;19.30;2.90;;;6.10;99.90;;;;;;5206693;28;20509;-48
2024/01/23 07:46:25;;;;;;;6.73;2.67;;;6.10;99.90;;;;;;5209462;28;20645;-49
2024/01/23 07:48:55;;;;;;;14.10;3.40;;;6.10;99.90;;;;;;5214441;28;20306;-50
2024/01/23 07:51:27;;;;;;;15.80;3.20;;;6.10;99.90;;;;;;5211252;28;20435;-50
2024/01/23 07:53:59;;;;;;;9.73;2.90;;;6.20;99.90;;;;;;5211549;28;20277;-51
2024/01/23 07:56:30;;;;;;;17.50;3.13;;;6.40;99.90;;;;;;5209411;28;20438;-47
2024/01/23 07:59:01;;;;;;;10.30;4.00;;;6.40;99.90;;;;;;5197545;28;20446;-49
2024/01/23 08:01:31;;;;;;;14.57;2.50;;;6.30;99.90;;;;;;5173355;28;20293;-49
2024/01/23 08:04:02;;;;;;;19.87;3.00;;;6.40;99.90;;;;;;5185034;28;20291;-49
2024/01/23 08:06:33;;;;;;;8.70;2.03;;;6.30;99.90;;;;;;5196271;28;20207;-49
2024/01/23 08:09:06;;;;;;;8.53;3.03;;;6.40;99.90;;;;;;5199857;28;20185;-51
2024/01/23 08:11:37;;;;;;;10.93;2.40;;;6.50;99.90;;;;;;5214528;28;20963;-49
2024/01/23 08:14:07;;;;;;;21.77;4.30;;;6.50;99.90;;;;;;5209836;28;20525;-50
2024/01/23 08:16:43;;;;;;;5.70;2.00;;;6.50;99.90;;;;;;5208459;28;20185;-49
2024/01/23 08:19:13;;;;;;;10.93;2.30;;;6.70;99.90;;;;;;5205731;28;20599;-52
2024/01/23 08:21:45;;;;;;;8.37;2.60;;;6.60;99.90;;;;;;5186989;28;20568;-50
2024/01/23 08:24:16;;;;;;;15.90;3.13;;;6.70;99.90;;;;;;5187665;28;20214;-49
2024/01/23 08:26:47;;;;;;;10.90;3.87;;;6.70;99.90;;;;;;5213236;28;20517;-51
2024/01/23 08:29:19;;;;;;;12.17;3.53;;;6.80;99.90;;;;;;5197812;28;20176;-48
2024/01/23 08:31:50;;;;;;;9.93;2.80;;;6.80;99.90;;;;;;5193316;28;20430;-49
2024/01/23 08:34:22;;;;;;;11.00;2.77;;;6.90;99.90;;;;;;5209096;28;20816;-48
2024/01/23 08:36:52;;;;;;;15.87;2.97;;;6.80;99.90;;;;;;5203786;28;20205;-50
2024/01/23 08:39:23;;;;;;;10.60;2.97;;;6.70;99.90;;;;;;5209573;28;20495;-50
2024/01/23 08:41:54;;;;;;;4.67;1.67;;;6.80;99.90;;;;;;5187337;28;20190;-50
2024/01/23 08:44:24;;;;;;;10.73;2.67;;;6.80;99.90;;;;;;5177526;28;20695;-50
2024/01/23 08:46:55;;;;;;;13.83;3.07;;;6.80;99.90;;;;;;5209464;28;20207;-48
2024/01/23 08:49:26;;;;;;;6.43;2.63;;;6.90;99.90;;;;;;5213178;28;20542;-50
2024/01/23 08:51:56;;;;;;;9.27;2.87;;;6.90;99.90;;;;;;5210441;28;20180;-50
2024/01/23 08:54:27;;;;;;;16.00;2.60;;;6.80;99.90;;;;;;5211612;28;20204;-48
2024/01/23 08:56:58;;;;;;;12.17;3.40;;;6.90;99.90;;;;;;5216099;28;20683;-52
2024/01/23 08:59:28;;;;;;;9.97;2.40;;;7.00;99.90;;;;;;5211341;28;20636;-50
2024/01/23 09:01:59;;;;;;;7.13;2.83;;;7.00;99.90;;;;;;5214654;28;20284;-50
2024/01/23 09:04:30;;;;;;;15.30;2.60;;;7.10;99.90;;;;;;5212046;28;20295;-52
2024/01/23 09:07:00;;;;;;;21.80;3.17;;;7.20;99.90;;;;;;5211285;28;20211;-51
2024/01/23 09:09:31;;;;;;;11.23;2.80;;;7.20;99.90;;;;;;5201767;28;20652;-52
2024/01/23 09:12:02;;;;;;;19.23;3.60;;;7.30;99.90;;;;;;5225254;28;20186;-53
2024/01/23 09:14:32;;;;;;;15.50;3.33;;;7.30;99.90;;;;;;5207925;28;20579;-48
2024/01/23 09:17:03;;;;;;;14.33;3.10;;;7.40;99.90;;;;;;5195614;28;20222;-50
2024/01/23 09:19:34;;;;;;;14.63;3.37;;;7.40;99.90;;;;;;5217093;28;20187;-49
2024/01/23 09:22:04;;;;;;;13.73;3.27;;;7.40;99.90;;;;;;5213285;28;20271;-50
2024/01/23 09:24:35;;;;;;;15.87;3.10;;;7.50;99.90;;;;;;5203804;28;20710;-47
2024/01/23 09:27:06;;;;;;;14.63;3.17;;;7.40;99.90;;;;;;5205839;28;20288;-51
2024/01/23 09:29:37;;;;;;;11.90;3.63;;;7.50;99.90;;;;;;5215857;28;20261;-49
2024/01/23 09:32:08;;;;;;;19.40;4.07;;;7.50;99.90;;;;;;5211056;28;20187;-50
2024/01/23 09:34:38;;;;;;;11.93;3.10;;;7.50;99.90;;;;;;5202513;28;20515;-49
2024/01/23 09:37:09;;;;;;;16.03;2.90;;;7.70;99.90;;;;;;5200134;28;20188;-50
2024/01/23 09:39:40;;;;;;;11.13;2.50;;;7.70;99.90;;;;;;5200960;28;20266;-50
2024/01/23 09:42:11;;;;;;;14.60;3.27;;;7.60;99.90;;;;;;5201915;28;20192;-51
2024/01/23 09:44:41;;;;;;;24.10;4.47;;;7.50;99.90;;;;;;5202471;28;20218;-49
2024/01/23 09:47:12;;;;;;;12.80;3.73;;;7.40;99.90;;;;;;5168919;28;21026;-50
2024/01/23 09:49:43;;;;;;;19.93;3.47;;;7.50;99.90;;;;;;5173779;28;20191;-51
2024/01/23 09:52:17;;;;;;;11.50;3.40;;;7.50;99.90;;;;;;5182591;28;20245;-50
2024/01/23 09:54:47;;;;;;;19.90;3.10;;;7.60;99.90;;;;;;5186652;28;20834;-49
2024/01/23 09:57:18;;;;;;;24.00;3.60;;;7.50;99.90;;;;;;5202477;28;20449;-50
2024/01/23 09:59:51;;;;;;;9.23;2.93;;;7.40;99.90;;;;;;5198444;28;20573;-49
2024/01/23 10:02:23;;;;;;;8.47;2.57;;;7.40;99.90;;;;;;5199971;28;20192;-50
2024/01/23 10:04:54;;;;;;;14.27;4.13;;;7.40;99.90;;;;;;5206656;28;20445;-50
2024/01/23 10:07:25;;;;;;;12.30;3.63;;;7.50;99.90;;;;;;5204445;28;20465;-50
2024/01/23 10:09:59;;;;;;;20.70;4.73;;;7.50;99.90;;;;;;5199881;28;20431;-50
2024/01/23 10:12:30;;;;;;;20.57;3.37;;;7.50;99.90;;;;;;5203068;28;20443;-50
2024/01/23 10:15:00;;;;;;;16.47;3.70;;;7.60;99.90;;;;;;5203726;28;21010;-49
2024/01/23 10:17:31;;;;;;;12.50;3.43;;;7.60;99.90;;;;;;5201866;28;20427;-51
2024/01/23 10:20:02;;;;;;;11.03;3.03;;;7.50;99.90;;;;;;5201149;28;20203;-49
2024/01/23 10:22:33;;;;;;;12.20;2.87;;;7.70;99.90;;;;;;5201872;28;20611;-50
2024/01/23 10:25:14;;;;;;;11.27;3.20;;;7.70;99.90;;;;;;5202940;28;20230;-49
2024/01/23 10:27:44;;;;;;;19.60;3.63;;;7.60;99.90;;;;;;5200381;28;20469;-51
2024/01/23 10:30:16;;;;;;;16.73;3.50;;;7.70;99.90;;;;;;5202780;28;20446;-50
2024/01/23 10:32:47;;;;;;;18.80;3.43;;;7.80;99.90;;;;;;5205929;28;20655;-51
2024/01/23 10:35:17;;;;;;;19.63;3.27;;;7.60;99.90;;;;;;5201617;28;20484;-48
2024/01/23 10:37:49;;;;;;;14.33;2.80;;;7.70;99.90;;;;;;5200948;28;20197;-49
2024/01/23 10:40:23;;;;;;;11.13;3.20;;;7.80;99.90;;;;;;5199992;28;20242;-50
2024/01/23 10:42:55;;;;;;;18.13;3.50;;;7.80;99.90;;;;;;5203772;28;20438;-51
2024/01/23 10:45:27;;;;;;;16.20;3.83;;;7.90;99.90;;;;;;5198970;28;21024;-52
2024/01/23 10:47:59;;;;;;;15.50;3.50;;;7.90;99.90;;;;;;5204217;28;21076;-49
2024/01/23 10:50:30;;;;;;;13.80;3.73;;;8.00;99.90;;;;;;5190744;28;20794;-47
2024/01/23 10:53:11;;;;;;;25.83;3.13;;;8.00;99.90;;;;;;5175346;28;20438;-50
2024/01/23 10:55:43;;;;;;;14.20;3.23;;;8.00;99.90;;;;;;5198041;28;20679;-52
2024/01/23 10:58:32;;;;;;;16.87;4.13;;;7.90;99.90;;;;;;5190724;28;20946;-52
2024/01/23 11:01:07;;;;;;;17.17;3.83;;;8.00;99.90;;;;;;5205814;28;20527;-50
2024/01/23 11:03:38;;;;;;;10.13;3.40;;;8.00;99.90;;;;;;5205005;28;21885;-50
2024/01/23 11:06:22;;;;;;;15.33;3.10;;;7.80;99.90;;;;;;5202669;28;20460;-48
2024/01/23 11:09:06;;;;;;;25.03;3.03;;;8.00;99.90;;;;;;5202109;28;20434;-51
2024/01/23 11:12:03;;;;;;;18.37;3.90;;;7.80;99.90;;;;;;5200224;28;20441;-50
2024/01/23 11:14:50;;;;;;;23.03;9.03;;;7.90;99.90;;;;;;5198925;28;20458;-49
2024/01/23 11:17:21;;;;;;;21.27;4.97;;;7.90;99.90;;;;;;5198339;28;20445;-51
2024/01/23 11:20:13;;;;;;;13.53;4.13;;;8.00;99.90;;;;;;5198863;28;20906;-49
2024/01/23 11:22:44;;;;;;;34.33;4.23;;;8.10;99.90;;;;;;5196027;28;20195;-51
2024/01/23 11:25:17;;;;;;;17.90;5.27;;;8.10;99.90;;;;;;5192078;28;20474;-48
2024/01/23 11:27:49;;;;;;;17.10;3.97;;;8.00;99.90;;;;;;5183253;28;20233;-49
2024/01/23 11:30:20;;;;;;;9.13;3.50;;;8.00;99.90;;;;;;5184943;28;20576;-50
2024/01/23 11:33:25;;;;;;;16.33;4.30;;;7.90;99.90;;;;;;5182430;28;20510;-49
2024/01/23 11:36:14;;;;;;;9.90;3.43;;;7.80;99.90;;;;;;5200852;28;20211;-49
2024/01/23 11:38:45;;;;;;;24.80;3.50;;;7.90;99.90;;;;;;5196995;28;20779;-51
2024/01/23 11:41:23;;;;;;;9.07;3.10;;;8.00;99.90;;;;;;5201545;28;20442;-48
2024/01/23 11:44:02;;;;;;;13.67;2.90;;;8.10;99.90;;;;;;5199875;28;20442;-47
2024/01/23 11:46:36;;;;;;;16.27;4.03;;;8.40;99.90;;;;;;5195963;28;20903;-50
2024/01/23 11:49:07;;;;;;;12.60;3.33;;;8.30;99.90;;;;;;5199167;28;20437;-48
2024/01/23 11:51:38;;;;;;;13.60;3.90;;;8.30;99.90;;;;;;5198301;28;20449;-48
2024/01/23 11:54:13;;;;;;;13.07;3.43;;;8.20;99.90;;;;;;5185874;28;20653;-48
2024/01/23 11:56:44;;;;;;;8.17;2.90;;;8.30;99.90;;;;;;5194177;28;20526;-50
2024/01/23 11:59:15;;;;;;;17.27;3.93;;;8.30;99.90;;;;;;5196259;28;20436;-49
2024/01/23 12:01:46;;;;;;;15.20;3.67;;;8.30;99.90;;;;;;5196287;28;20435;-49
2024/01/23 12:04:17;;;;;;;20.67;4.00;;;8.40;99.90;;;;;;5192689;28;20220;-50
2024/01/23 12:06:48;;;;;;;18.80;3.90;;;8.30;99.90;;;;;;5201726;28;20242;-50
2024/01/23 12:09:18;;;;;;;14.83;3.60;;;8.20;99.90;;;;;;5167202;28;20479;-49
2024/01/23 12:11:51;;;;;;;21.67;4.07;;;8.30;99.90;;;;;;5197279;28;20179;-50
2024/01/23 12:14:22;;;;;;;12.10;3.47;;;8.40;99.90;;;;;;5198155;28;20219;-50
2024/01/23 12:17:04;;;;;;;8.30;3.17;;;8.30;99.90;;;;;;5183187;28;20942;-49
2024/01/23 12:19:46;;;;;;;17.53;3.67;;;8.40;99.90;;;;;;5192543;28;20450;-49
2024/01/23 12:22:18;;;;;;;11.53;3.00;;;8.40;99.90;;;;;;5179531;28;20429;-48
2024/01/23 12:24:48;;;;;;;15.60;3.37;;;8.40;99.90;;;;;;5203346;28;20485;-52
2024/01/23 12:27:19;;;;;;;17.97;3.83;;;8.40;99.90;;;;;;5185005;22;20484;-52
2024/01/23 12:29:50;;;;;;;23.67;3.13;;;8.50;99.90;;;;;;5178595;28;20335;-52
2024/01/23 12:32:25;;;;;;;19.67;3.83;;;8.50;99.90;;;;;;5140863;28;20438;-51
2024/01/23 12:34:56;;;;;;;18.70;4.27;;;8.50;99.90;;;;;;5147034;28;20205;-49
2024/01/23 12:37:29;;;;;;;15.87;3.70;;;8.60;99.90;;;;;;5155330;28;20529;-49
2024/01/23 12:40:08;;;;;;;17.83;5.37;;;8.50;99.90;;;;;;5153487;28;20530;-49
2024/01/23 12:42:43;;;;;;;22.17;4.50;;;8.50;99.90;;;;;;5150338;28;20456;-52
2024/01/23 12:45:19;;;;;;;16.13;3.77;;;8.60;99.90;;;;;;5144316;28;21060;-48
2024/01/23 12:47:50;;;;;;;18.33;3.20;;;8.60;99.90;;;;;;5153460;28;20529;-48
2024/01/23 12:50:25;;;;;;;13.50;3.50;;;8.50;99.90;;;;;;5143869;28;20443;-47
2024/01/23 12:52:58;;;;;;;13.53;2.97;;;8.60;99.90;;;;;;5148804;28;20995;-50
2024/01/23 12:55:30;;;;;;;18.90;3.80;;;8.60;99.90;;;;;;5158173;28;20863;-49
2024/01/23 12:58:01;;;;;;;11.50;4.17;;;8.50;99.90;;;;;;5154143;28;20943;-47
2024/01/23 13:00:32;;;;;;;13.90;3.20;;;8.50;99.90;;;;;;5147423;28;20432;-48
2024/01/23 13:03:04;;;;;;;10.03;3.33;;;8.50;99.90;;;;;;5156032;28;20443;-46
2024/01/23 13:05:34;;;;;;;20.13;4.90;;;8.50;99.90;;;;;;5233576;28;20568;-49
2024/01/23 13:08:05;;;;;;;13.33;4.40;;;8.60;99.90;;;;;;5151888;28;20440;-47
2024/01/23 13:10:36;;;;;;;21.70;4.63;;;8.60;99.90;;;;;;5160071;28;20226;-47
2024/01/23 13:13:06;;;;;;;13.37;4.70;;;8.60;99.90;;;;;;5153137;28;20193;-47
2024/01/23 13:15:37;;;;;;;19.50;4.67;;;8.60;99.90;;;;;;5235006;28;20774;-47